createdAt,value
2019-01-21T00:00:36.394Z,28.67
2019-01-21T00:04:43.963Z,31.87
2019-01-21T00:08:51.021Z,27.83
2019-01-21T00:12:58.258Z,28.83
2019-01-21T00:17:05.535Z,30.33
2019-01-21T00:21:12.921Z,29.73
2019-01-21T00:25:20.032Z,30.07
2019-01-21T00:29:27.375Z,27.70
2019-01-21T00:33:34.453Z,29.23
2019-01-21T00:37:41.670Z,33.47
2019-01-21T00:41:48.662Z,29.87
2019-01-21T00:45:55.753Z,31.43
2019-01-21T00:50:02.744Z,30.43
2019-01-21T00:54:11.058Z,30.87
2019-01-21T00:58:18.134Z,32.33
2019-01-21T01:02:25.176Z,30.33
2019-01-21T01:06:32.131Z,30.40
2019-01-21T01:10:39.423Z,29.03
2019-01-21T01:14:46.927Z,31.53
2019-01-21T01:18:54.019Z,31.03
2019-01-21T01:23:01.177Z,31.63
2019-01-21T01:27:10.520Z,34.00
2019-01-21T01:31:17.643Z,30.97
2019-01-21T01:35:24.786Z,31.50
2019-01-21T01:39:31.882Z,31.20
2019-01-21T01:43:38.855Z,34.03
2019-01-21T01:47:45.921Z,33.80
2019-01-21T01:51:55.788Z,31.37
2019-01-21T01:56:05.059Z,32.97
2019-01-21T02:00:15.474Z,30.77
2019-01-21T02:04:22.508Z,32.60
2019-01-21T02:08:32.598Z,30.40
2019-01-21T02:12:41.447Z,34.33
2019-01-21T02:16:48.558Z,31.23
2019-01-21T02:20:58.771Z,30.33
2019-01-21T02:25:07.809Z,32.53
2019-01-21T02:29:58.084Z,33.77
2019-01-21T02:34:55.541Z,28.37
2019-01-21T02:39:57.595Z,33.20
2019-01-21T02:45:04.156Z,34.03
2019-01-21T02:50:08.716Z,32.37
2019-01-21T02:54:54.908Z,34.33
2019-01-21T02:59:33.515Z,35.30
2019-01-21T03:04:24.850Z,34.43
2019-01-21T03:09:17.201Z,36.57
2019-01-21T03:14:29.246Z,34.73
2019-01-21T03:19:57.255Z,36.47
2019-01-21T03:25:18.973Z,39.00
2019-01-21T03:30:07.566Z,36.20
2019-01-21T03:34:59.277Z,37.80
2019-01-21T03:40:07.842Z,36.03
2019-01-21T03:45:29.416Z,38.97
2019-01-21T03:50:18.836Z,40.47
2019-01-21T03:54:55.628Z,39.57
2019-01-21T04:00:06.169Z,39.60
2019-01-21T04:05:06.211Z,38.33
2019-01-21T04:10:18.380Z,37.97
2019-01-21T04:15:22.763Z,37.27
2019-01-21T04:20:26.537Z,40.90
2019-01-21T04:25:31.225Z,43.13
2019-01-21T04:30:32.729Z,35.73
2019-01-21T04:36:06.805Z,39.97
2019-01-21T04:40:59.104Z,37.50
2019-01-21T04:45:54.517Z,41.80
2019-01-21T04:51:34.739Z,43.60
2019-01-21T04:56:11.753Z,44.23
2019-01-21T05:01:04.496Z,40.70
2019-01-21T05:06:21.214Z,42.70
2019-01-21T05:11:24.494Z,43.73
2019-01-21T05:16:14.744Z,38.90
2019-01-21T05:21:26.658Z,41.70
2019-01-21T05:26:16.455Z,42.30
2019-01-21T05:31:17.251Z,42.33
2019-01-21T05:36:24.578Z,43.33
2019-01-21T05:41:42.340Z,41.33
2019-01-21T05:46:46.590Z,45.43
2019-01-21T05:52:10.613Z,42.33
2019-01-21T05:57:47.508Z,41.97
2019-01-21T06:03:21.590Z,41.47
2019-01-21T06:08:20.092Z,39.17
2019-01-21T06:13:18.541Z,41.57
2019-01-21T06:18:32.668Z,39.87
2019-01-21T06:23:42.196Z,41.23
2019-01-21T06:28:59.867Z,40.73
2019-01-21T06:33:51.368Z,44.90
2019-01-21T06:38:46.897Z,40.50
2019-01-21T06:44:18.888Z,41.97
2019-01-21T06:49:20.185Z,40.10
2019-01-21T06:54:11.115Z,42.00
2019-01-21T06:59:08.486Z,41.57
2019-01-21T07:04:08.423Z,41.40
2019-01-21T07:09:23.152Z,42.07
2019-01-21T07:14:26.771Z,43.20
2019-01-21T07:19:15.969Z,45.40
2019-01-21T07:24:40.946Z,44.67
2019-01-21T07:29:52.687Z,44.20
2019-01-21T07:34:58.200Z,43.30
2019-01-21T07:39:52.272Z,44.03
2019-01-21T07:44:47.121Z,45.40
2019-01-21T07:50:04.870Z,46.97
2019-01-21T07:55:09.605Z,46.77
2019-01-21T08:00:19.278Z,41.97
2019-01-21T08:05:27.226Z,44.47
2019-01-21T08:10:33.654Z,44.83
2019-01-21T08:15:43.944Z,45.87
2019-01-21T08:20:31.514Z,40.57
2019-01-21T08:25:37.257Z,45.33
2019-01-21T08:30:15.616Z,43.57
2019-01-21T08:35:08.251Z,42.60
2019-01-21T08:40:16.862Z,41.87
2019-01-21T08:45:34.860Z,39.87
2019-01-21T08:50:30.458Z,40.87
2019-01-21T08:55:40.002Z,37.83
2019-01-21T09:00:51.922Z,38.97
2019-01-21T09:06:05.200Z,36.63
2019-01-21T09:11:06.461Z,37.37
2019-01-21T09:16:21.102Z,39.63
2019-01-21T09:21:00.281Z,35.30
2019-01-21T09:25:55.875Z,36.43
2019-01-21T09:30:27.563Z,36.93
2019-01-21T09:35:15.813Z,35.80
2019-01-21T09:40:05.311Z,35.67
2019-01-21T09:44:29.261Z,38.67
2019-01-21T09:48:33.660Z,37.03
2019-01-21T09:52:41.529Z,37.63
2019-01-21T09:56:50.613Z,33.97
2019-01-21T10:00:59.316Z,32.13
2019-01-21T10:05:14.663Z,32.93
2019-01-21T10:10:02.783Z,31.07
2019-01-21T10:15:08.213Z,31.37
2019-01-21T10:19:56.716Z,30.00
2019-01-21T10:25:20.562Z,34.23
2019-01-21T10:30:20.525Z,31.27
2019-01-21T10:35:11.424Z,31.13
2019-01-21T10:40:19.440Z,31.50
2019-01-21T10:45:27.992Z,33.53
2019-01-21T10:50:25.283Z,30.80
2019-01-21T10:55:48.355Z,29.53
2019-01-21T11:01:14.403Z,30.20
2019-01-21T11:06:07.068Z,28.93
2019-01-21T11:10:50.300Z,28.77
2019-01-21T11:15:44.520Z,27.40
2019-01-21T11:20:32.295Z,32.67
2019-01-21T11:25:41.450Z,31.57
2019-01-21T11:30:52.290Z,31.30
2019-01-21T11:35:45.027Z,30.13
2019-01-21T11:41:17.716Z,28.37
2019-01-21T11:46:08.042Z,33.13
2019-01-21T11:50:52.719Z,29.77
2019-01-21T11:56:05.790Z,28.13
2019-01-21T12:00:40.593Z,23.40
2019-01-21T12:05:36.757Z,27.90
2019-01-21T12:10:46.378Z,31.30
2019-01-21T12:15:29.049Z,28.27
2019-01-21T12:20:17.058Z,26.80
2019-01-21T12:24:46.712Z,26.83
2019-01-21T12:29:34.923Z,26.40
2019-01-21T12:34:27.142Z,23.13
2019-01-21T12:39:11.998Z,25.13
2019-01-21T12:44:09.552Z,23.60
2019-01-21T12:49:22.644Z,24.20
2019-01-21T12:54:19.726Z,24.83
2019-01-21T12:59:07.207Z,22.57
2019-01-21T13:04:04.275Z,23.30
2019-01-21T13:08:51.437Z,26.77
2019-01-21T13:14:11.893Z,26.70
2019-01-21T13:19:06.983Z,24.87
2019-01-21T13:23:56.331Z,25.27
2019-01-21T13:29:00.872Z,26.83
2019-01-21T13:33:48.692Z,26.53
2019-01-21T13:39:01.052Z,29.90
2019-01-21T13:43:43.667Z,26.47
2019-01-21T13:48:22.267Z,32.20
2019-01-21T13:53:24.039Z,28.13
2019-01-21T13:58:26.573Z,32.27
2019-01-21T14:03:14.375Z,30.37
2019-01-21T14:08:23.772Z,32.17
2019-01-21T14:13:26.286Z,33.00
2019-01-21T14:18:11.125Z,30.80
2019-01-21T14:22:55.123Z,30.33
2019-01-21T14:28:14.854Z,32.63
2019-01-21T14:33:19.689Z,31.60
2019-01-21T14:37:53.894Z,33.87
2019-01-21T14:43:01.129Z,34.17
2019-01-21T14:47:59.412Z,33.37
2019-01-21T14:53:22.335Z,32.97
2019-01-21T14:58:30.940Z,32.10
2019-01-21T15:03:22.982Z,31.10
2019-01-21T15:07:57.280Z,32.33
2019-01-21T15:13:07.779Z,38.27
2019-01-21T15:17:50.021Z,36.77
2019-01-21T15:23:07.277Z,35.37
2019-01-21T15:28:09.050Z,33.43
2019-01-21T15:32:58.532Z,35.60
2019-01-21T15:38:17.968Z,33.13
2019-01-21T15:43:27.023Z,37.20
2019-01-21T15:48:28.343Z,37.93
2019-01-21T15:53:22.527Z,41.63
2019-01-21T15:58:23.106Z,35.03
2019-01-21T16:03:27.392Z,43.50
2019-01-21T16:08:14.004Z,38.97
2019-01-21T16:13:31.322Z,38.70
2019-01-21T16:18:08.574Z,40.47
2019-01-21T16:23:17.239Z,39.40
2019-01-21T16:28:18.025Z,40.67
2019-01-21T16:33:19.791Z,39.53
2019-01-21T16:38:20.596Z,38.70
2019-01-21T16:42:25.584Z,35.07
2019-01-21T16:46:44.174Z,41.57
2019-01-21T16:50:56.962Z,41.97
2019-01-21T16:55:09.788Z,35.53
2019-01-21T16:59:17.103Z,43.70
2019-01-21T17:03:27.173Z,39.57
2019-01-21T17:07:35.944Z,47.80
2019-01-21T17:11:43.187Z,44.83
2019-01-21T17:15:50.620Z,43.00
2019-01-21T17:19:59.081Z,40.80
2019-01-21T17:24:10.362Z,43.70
2019-01-21T17:28:17.498Z,43.90
2019-01-21T17:32:26.189Z,42.23
2019-01-21T17:36:33.284Z,43.97
2019-01-21T17:40:40.836Z,46.97
2019-01-21T17:44:47.879Z,43.00
2019-01-21T17:48:57.227Z,44.13
2019-01-21T17:53:04.406Z,45.93
2019-01-21T17:57:12.089Z,47.30
2019-01-21T18:01:20.301Z,42.20
2019-01-21T18:05:29.986Z,47.10
2019-01-21T18:09:38.421Z,62.07
2019-01-21T18:13:45.705Z,54.73
2019-01-21T18:17:52.922Z,48.93
2019-01-21T18:22:01.237Z,47.90
2019-01-21T18:26:09.770Z,46.27
2019-01-21T18:30:24.323Z,47.90
2019-01-21T18:34:31.958Z,48.87
2019-01-21T18:38:39.090Z,49.63
2019-01-21T18:42:46.983Z,52.57
2019-01-21T18:46:54.195Z,52.37
2019-01-21T18:51:03.306Z,105.13
2019-01-21T18:55:11.165Z,53.70
2019-01-21T18:59:18.215Z,48.83
2019-01-21T19:03:29.444Z,47.43
2019-01-21T19:07:36.709Z,48.43
2019-01-21T19:11:43.936Z,48.83
2019-01-21T19:15:54.110Z,45.13
2019-01-21T19:20:01.214Z,45.33
2019-01-21T19:24:08.610Z,40.73
2019-01-21T19:28:15.865Z,45.37
2019-01-21T19:32:22.875Z,49.40
2019-01-21T19:36:30.011Z,44.57
2019-01-21T19:40:37.386Z,53.13
2019-01-21T19:44:44.635Z,49.93
2019-01-21T19:48:51.861Z,51.63
2019-01-21T19:52:59.066Z,52.83
2019-01-21T19:57:06.409Z,48.90
2019-01-21T20:01:14.131Z,50.00
2019-01-21T20:05:21.537Z,44.20
2019-01-21T20:09:29.617Z,47.57
2019-01-21T20:13:36.694Z,45.23
2019-01-21T20:17:43.732Z,46.77
2019-01-21T20:21:51.793Z,49.57
2019-01-21T20:25:59.295Z,48.10
2019-01-21T20:30:08.797Z,53.07
2019-01-21T20:34:15.701Z,49.13
2019-01-21T20:38:24.307Z,51.47
2019-01-21T20:42:31.367Z,52.33
2019-01-21T20:46:38.569Z,51.03
2019-01-21T20:50:45.946Z,50.60
2019-01-21T20:54:53.401Z,52.80
2019-01-21T20:59:01.304Z,51.87
2019-01-21T21:03:08.811Z,50.43
2019-01-21T21:07:16.201Z,62.40
2019-01-21T21:11:23.914Z,64.00
2019-01-21T21:15:33.951Z,57.23
2019-01-21T21:19:41.242Z,54.67
2019-01-21T21:23:48.452Z,54.00
2019-01-21T21:27:55.359Z,54.87
2019-01-21T21:32:02.607Z,51.77
2019-01-21T21:36:09.754Z,51.20
2019-01-21T21:40:20.494Z,55.63
2019-01-21T21:44:30.384Z,62.43
2019-01-21T21:48:37.479Z,59.47
2019-01-21T21:52:52.855Z,62.80
2019-01-21T21:57:04.621Z,54.57
2019-01-21T22:01:12.010Z,61.43
2019-01-21T22:05:22.334Z,65.77
2019-01-21T22:09:29.610Z,71.17
2019-01-21T22:13:37.023Z,65.00
2019-01-21T22:17:45.791Z,68.43
2019-01-21T22:21:54.103Z,68.90
2019-01-21T22:26:02.388Z,70.20
2019-01-21T22:30:16.425Z,68.90
2019-01-21T22:34:23.862Z,71.27
2019-01-21T22:38:31.476Z,69.07
2019-01-21T22:42:41.335Z,67.20
2019-01-21T22:46:49.033Z,71.40
2019-01-21T22:50:56.078Z,64.43
2019-01-21T22:55:03.322Z,75.60
2019-01-21T22:59:10.777Z,66.13
2019-01-21T23:03:19.073Z,70.27
2019-01-21T23:07:26.718Z,67.43
2019-01-21T23:11:35.327Z,71.97
2019-01-21T23:15:42.863Z,65.50
2019-01-21T23:19:50.508Z,68.07
2019-01-21T23:23:58.175Z,72.90
2019-01-21T23:28:06.769Z,66.73
2019-01-21T23:32:14.201Z,68.03
2019-01-21T23:36:21.477Z,73.43
2019-01-21T23:40:28.691Z,70.70
2019-01-21T23:44:36.964Z,73.83
2019-01-21T23:48:44.133Z,71.87
2019-01-21T23:52:55.951Z,70.63
2019-01-21T23:57:03.295Z,68.43
